sensor_id;sensor_type;location;lat;lon;timestamp;P1;durP1;ratioP1;P2;durP2;ratioP2
34405;SDS011;20658;45.630;8.886;2022-07-19T00:00:56;11.55;;;5.82;;
34405;SDS011;20658;45.630;8.886;2022-07-19T00:03:30;13.57;;;6.03;;
34405;SDS011;20658;45.630;8.886;2022-07-19T00:06:05;10.98;;;6.05;;
34405;SDS011;20658;45.630;8.886;2022-07-19T00:08:38;13.55;;;5.93;;
34405;SDS011;20658;45.630;8.886;2022-07-19T00:11:12;9.20;;;5.63;;
34405;SDS011;20658;45.630;8.886;2022-07-19T00:13:45;12.13;;;5.82;;
34405;SDS011;20658;45.630;8.886;2022-07-19T00:16:19;10.70;;;5.00;;
34405;SDS011;20658;45.630;8.886;2022-07-19T00:18:52;17.35;;;6.00;;
34405;SDS011;20658;45.630;8.886;2022-07-19T00:21:27;10.25;;;5.68;;
34405;SDS011;20658;45.630;8.886;2022-07-19T00:24:00;16.20;;;6.60;;
34405;SDS011;20658;45.630;8.886;2022-07-19T00:26:34;12.52;;;6.15;;
34405;SDS011;20658;45.630;8.886;2022-07-19T00:29:07;8.32;;;5.20;;
34405;SDS011;20658;45.630;8.886;2022-07-19T00:31:41;14.18;;;5.47;;
34405;SDS011;20658;45.630;8.886;2022-07-19T00:34:10;8.75;;;5.22;;
34405;SDS011;20658;45.630;8.886;2022-07-19T00:36:45;11.43;;;5.72;;
34405;SDS011;20658;45.630;8.886;2022-07-19T00:39:19;10.48;;;5.75;;
34405;SDS011;20658;45.630;8.886;2022-07-19T00:41:52;11.82;;;5.20;;
34405;SDS011;20658;45.630;8.886;2022-07-19T00:44:25;12.98;;;5.30;;
34405;SDS011;20658;45.630;8.886;2022-07-19T00:46:59;11.73;;;5.88;;
34405;SDS011;20658;45.630;8.886;2022-07-19T00:49:33;12.88;;;6.10;;
34405;SDS011;20658;45.630;8.886;2022-07-19T00:52:08;13.27;;;5.63;;
34405;SDS011;20658;45.630;8.886;2022-07-19T00:54:43;11.13;;;5.88;;
34405;SDS011;20658;45.630;8.886;2022-07-19T00:57:18;12.32;;;6.13;;
34405;SDS011;20658;45.630;8.886;2022-07-19T00:59:52;13.27;;;6.00;;
34405;SDS011;20658;45.630;8.886;2022-07-19T01:02:26;14.07;;;6.03;;
34405;SDS011;20658;45.630;8.886;2022-07-19T01:05:02;10.60;;;6.15;;
34405;SDS011;20658;45.630;8.886;2022-07-19T01:07:38;11.23;;;6.68;;
34405;SDS011;20658;45.630;8.886;2022-07-19T01:10:13;14.57;;;5.68;;
34405;SDS011;20658;45.630;8.886;2022-07-19T01:12:47;11.00;;;5.22;;
34405;SDS011;20658;45.630;8.886;2022-07-19T01:15:22;11.85;;;6.10;;
34405;SDS011;20658;45.630;8.886;2022-07-19T01:17:57;12.82;;;5.90;;
34405;SDS011;20658;45.630;8.886;2022-07-19T01:20:31;14.20;;;6.25;;
34405;SDS011;20658;45.630;8.886;2022-07-19T01:23:06;14.13;;;6.10;;
34405;SDS011;20658;45.630;8.886;2022-07-19T01:25:40;10.65;;;5.75;;
34405;SDS011;20658;45.630;8.886;2022-07-19T01:28:13;12.05;;;5.72;;
34405;SDS011;20658;45.630;8.886;2022-07-19T01:30:47;12.77;;;5.50;;
34405;SDS011;20658;45.630;8.886;2022-07-19T01:33:22;14.35;;;5.88;;
34405;SDS011;20658;45.630;8.886;2022-07-19T01:35:55;14.95;;;5.97;;
34405;SDS011;20658;45.630;8.886;2022-07-19T01:38:30;11.90;;;5.50;;
34405;SDS011;20658;45.630;8.886;2022-07-19T01:41:04;14.90;;;7.07;;
34405;SDS011;20658;45.630;8.886;2022-07-19T01:43:37;14.38;;;7.18;;
34405;SDS011;20658;45.630;8.886;2022-07-19T01:46:11;13.80;;;6.45;;
34405;SDS011;20658;45.630;8.886;2022-07-19T01:48:44;13.32;;;6.40;;
34405;SDS011;20658;45.630;8.886;2022-07-19T01:51:18;15.90;;;6.15;;
34405;SDS011;20658;45.630;8.886;2022-07-19T01:53:52;10.93;;;5.85;;
34405;SDS011;20658;45.630;8.886;2022-07-19T01:56:26;15.55;;;6.68;;
34405;SDS011;20658;45.630;8.886;2022-07-19T01:58:59;13.55;;;6.97;;
34405;SDS011;20658;45.630;8.886;2022-07-19T02:01:33;14.07;;;6.13;;
34405;SDS011;20658;45.630;8.886;2022-07-19T02:04:06;15.82;;;6.50;;
34405;SDS011;20658;45.630;8.886;2022-07-19T02:06:42;13.95;;;6.18;;
34405;SDS011;20658;45.630;8.886;2022-07-19T02:09:17;17.15;;;5.63;;
34405;SDS011;20658;45.630;8.886;2022-07-19T02:11:50;12.57;;;6.43;;
34405;SDS011;20658;45.630;8.886;2022-07-19T02:14:24;14.88;;;6.20;;
34405;SDS011;20658;45.630;8.886;2022-07-19T02:16:57;10.73;;;6.07;;
34405;SDS011;20658;45.630;8.886;2022-07-19T02:19:31;10.95;;;5.93;;
34405;SDS011;20658;45.630;8.886;2022-07-19T02:22:05;14.13;;;5.75;;
34405;SDS011;20658;45.630;8.886;2022-07-19T02:24:39;15.60;;;6.38;;
34405;SDS011;20658;45.630;8.886;2022-07-19T02:27:14;18.63;;;6.82;;
34405;SDS011;20658;45.630;8.886;2022-07-19T02:29:47;22.23;;;6.82;;
34405;SDS011;20658;45.630;8.886;2022-07-19T02:32:21;13.77;;;6.50;;
34405;SDS011;20658;45.630;8.886;2022-07-19T02:34:54;15.85;;;5.95;;
34405;SDS011;20658;45.630;8.886;2022-07-19T02:37:28;17.00;;;5.63;;
34405;SDS011;20658;45.630;8.886;2022-07-19T02:40:03;9.25;;;5.57;;
34405;SDS011;20658;45.630;8.886;2022-07-19T02:42:38;13.10;;;5.78;;
34405;SDS011;20658;45.630;8.886;2022-07-19T02:45:11;14.25;;;6.03;;
34405;SDS011;20658;45.630;8.886;2022-07-19T02:47:45;12.63;;;5.72;;
34405;SDS011;20658;45.630;8.886;2022-07-19T02:50:19;14.60;;;5.40;;
34405;SDS011;20658;45.630;8.886;2022-07-19T02:52:53;10.48;;;4.50;;
34405;SDS011;20658;45.630;8.886;2022-07-19T02:55:28;8.50;;;4.68;;
34405;SDS011;20658;45.630;8.886;2022-07-19T02:58:02;8.75;;;4.32;;
34405;SDS011;20658;45.630;8.886;2022-07-19T03:00:36;14.82;;;5.85;;
34405;SDS011;20658;45.630;8.886;2022-07-19T03:03:09;18.48;;;5.13;;
34405;SDS011;20658;45.630;8.886;2022-07-19T03:06:00;10.38;;;4.82;;
34405;SDS011;20658;45.630;8.886;2022-07-19T03:08:33;15.45;;;5.00;;
34405;SDS011;20658;45.630;8.886;2022-07-19T03:11:08;16.65;;;5.70;;
34405;SDS011;20658;45.630;8.886;2022-07-19T03:13:42;15.13;;;5.50;;
34405;SDS011;20658;45.630;8.886;2022-07-19T03:16:16;13.10;;;5.95;;
34405;SDS011;20658;45.630;8.886;2022-07-19T03:18:50;15.40;;;6.10;;
34405;SDS011;20658;45.630;8.886;2022-07-19T03:21:23;9.65;;;4.85;;
34405;SDS011;20658;45.630;8.886;2022-07-19T03:23:56;14.13;;;5.43;;
34405;SDS011;20658;45.630;8.886;2022-07-19T03:26:31;11.02;;;5.32;;
34405;SDS011;20658;45.630;8.886;2022-07-19T03:29:05;14.20;;;4.63;;
34405;SDS011;20658;45.630;8.886;2022-07-19T03:31:38;11.65;;;5.78;;
34405;SDS011;20658;45.630;8.886;2022-07-19T03:34:11;9.55;;;5.03;;
34405;SDS011;20658;45.630;8.886;2022-07-19T03:36:45;10.02;;;5.28;;
34405;SDS011;20658;45.630;8.886;2022-07-19T03:39:18;17.42;;;6.20;;
34405;SDS011;20658;45.630;8.886;2022-07-19T03:41:53;13.50;;;6.28;;
34405;SDS011;20658;45.630;8.886;2022-07-19T03:44:26;13.30;;;5.50;;
34405;SDS011;20658;45.630;8.886;2022-07-19T03:47:00;15.40;;;5.80;;
34405;SDS011;20658;45.630;8.886;2022-07-19T03:49:33;10.63;;;5.63;;
34405;SDS011;20658;45.630;8.886;2022-07-19T03:52:07;14.32;;;6.18;;
34405;SDS011;20658;45.630;8.886;2022-07-19T03:54:40;16.23;;;6.20;;
34405;SDS011;20658;45.630;8.886;2022-07-19T03:57:15;13.63;;;5.88;;
34405;SDS011;20658;45.630;8.886;2022-07-19T03:59:49;16.17;;;6.65;;
34405;SDS011;20658;45.630;8.886;2022-07-19T04:02:22;16.67;;;6.18;;
34405;SDS011;20658;45.630;8.886;2022-07-19T04:04:55;13.00;;;6.65;;
34405;SDS011;20658;45.630;8.886;2022-07-19T04:07:29;12.38;;;6.43;;
34405;SDS011;20658;45.630;8.886;2022-07-19T04:10:02;13.18;;;5.88;;
34405;SDS011;20658;45.630;8.886;2022-07-19T04:12:38;13.60;;;6.88;;
34405;SDS011;20658;45.630;8.886;2022-07-19T04:15:11;16.00;;;6.22;;
34405;SDS011;20658;45.630;8.886;2022-07-19T04:17:45;16.08;;;7.22;;
34405;SDS011;20658;45.630;8.886;2022-07-19T04:20:18;13.75;;;7.47;;
34405;SDS011;20658;45.630;8.886;2022-07-19T04:22:52;12.35;;;7.32;;
34405;SDS011;20658;45.630;8.886;2022-07-19T04:25:27;12.88;;;5.95;;
34405;SDS011;20658;45.630;8.886;2022-07-19T04:28:02;10.07;;;6.40;;
34405;SDS011;20658;45.630;8.886;2022-07-19T04:30:37;13.45;;;6.13;;
34405;SDS011;20658;45.630;8.886;2022-07-19T04:33:12;13.68;;;6.22;;
34405;SDS011;20658;45.630;8.886;2022-07-19T04:35:47;17.20;;;6.65;;
34405;SDS011;20658;45.630;8.886;2022-07-19T04:38:20;13.23;;;5.97;;
34405;SDS011;20658;45.630;8.886;2022-07-19T04:40:54;14.48;;;6.18;;
34405;SDS011;20658;45.630;8.886;2022-07-19T04:43:23;15.45;;;6.30;;
34405;SDS011;20658;45.630;8.886;2022-07-19T04:45:57;14.68;;;5.88;;
34405;SDS011;20658;45.630;8.886;2022-07-19T04:48:31;18.92;;;6.63;;
34405;SDS011;20658;45.630;8.886;2022-07-19T04:51:04;15.65;;;6.72;;
34405;SDS011;20658;45.630;8.886;2022-07-19T04:53:38;14.20;;;6.60;;
34405;SDS011;20658;45.630;8.886;2022-07-19T04:56:11;12.93;;;6.32;;
34405;SDS011;20658;45.630;8.886;2022-07-19T04:58:46;9.68;;;6.50;;
34405;SDS011;20658;45.630;8.886;2022-07-19T05:01:19;11.93;;;6.43;;
34405;SDS011;20658;45.630;8.886;2022-07-19T05:03:53;11.23;;;6.40;;
34405;SDS011;20658;45.630;8.886;2022-07-19T05:06:26;19.67;;;6.82;;
34405;SDS011;20658;45.630;8.886;2022-07-19T05:09:00;17.83;;;7.05;;
34405;SDS011;20658;45.630;8.886;2022-07-19T05:11:33;12.10;;;6.72;;
34405;SDS011;20658;45.630;8.886;2022-07-19T05:14:08;12.00;;;6.88;;
34405;SDS011;20658;45.630;8.886;2022-07-19T05:16:41;12.13;;;7.30;;
34405;SDS011;20658;45.630;8.886;2022-07-19T05:19:15;12.52;;;6.50;;
34405;SDS011;20658;45.630;8.886;2022-07-19T05:21:48;15.02;;;7.35;;
34405;SDS011;20658;45.630;8.886;2022-07-19T05:24:22;17.85;;;6.88;;
34405;SDS011;20658;45.630;8.886;2022-07-19T05:26:56;15.07;;;6.88;;
34405;SDS011;20658;45.630;8.886;2022-07-19T05:29:31;14.48;;;6.82;;
34405;SDS011;20658;45.630;8.886;2022-07-19T05:32:05;10.27;;;6.63;;
34405;SDS011;20658;45.630;8.886;2022-07-19T05:34:38;15.88;;;6.97;;
34405;SDS011;20658;45.630;8.886;2022-07-19T05:37:12;15.18;;;6.80;;
34405;SDS011;20658;45.630;8.886;2022-07-19T05:39:45;19.42;;;6.50;;
34405;SDS011;20658;45.630;8.886;2022-07-19T05:42:19;16.25;;;6.90;;
34405;SDS011;20658;45.630;8.886;2022-07-19T05:44:54;10.07;;;5.45;;
34405;SDS011;20658;45.630;8.886;2022-07-19T05:47:27;11.85;;;5.75;;
34405;SDS011;20658;45.630;8.886;2022-07-19T05:50:01;12.32;;;5.18;;
34405;SDS011;20658;45.630;8.886;2022-07-19T05:52:35;14.27;;;6.10;;
34405;SDS011;20658;45.630;8.886;2022-07-19T05:55:08;10.40;;;5.90;;
34405;SDS011;20658;45.630;8.886;2022-07-19T05:57:42;13.93;;;5.65;;
34405;SDS011;20658;45.630;8.886;2022-07-19T06:00:17;9.98;;;5.78;;
34405;SDS011;20658;45.630;8.886;2022-07-19T06:02:50;9.98;;;4.93;;
34405;SDS011;20658;45.630;8.886;2022-07-19T06:05:24;16.33;;;5.50;;
34405;SDS011;20658;45.630;8.886;2022-07-19T06:07:57;13.90;;;5.40;;
34405;SDS011;20658;45.630;8.886;2022-07-19T06:10:31;15.35;;;5.35;;
34405;SDS011;20658;45.630;8.886;2022-07-19T06:13:05;15.13;;;5.78;;
34405;SDS011;20658;45.630;8.886;2022-07-19T06:15:39;17.38;;;5.97;;
34405;SDS011;20658;45.630;8.886;2022-07-19T06:18:13;13.38;;;5.05;;
34405;SDS011;20658;45.630;8.886;2022-07-19T06:20:46;13.02;;;4.65;;
34405;SDS011;20658;45.630;8.886;2022-07-19T06:23:20;14.57;;;5.10;;
34405;SDS011;20658;45.630;8.886;2022-07-19T06:25:53;10.07;;;4.50;;
34405;SDS011;20658;45.630;8.886;2022-07-19T06:28:27;15.73;;;5.05;;
34405;SDS011;20658;45.630;8.886;2022-07-19T06:31:02;13.45;;;4.75;;
34405;SDS011;20658;45.630;8.886;2022-07-19T06:33:35;11.85;;;4.50;;
34405;SDS011;20658;45.630;8.886;2022-07-19T06:36:10;10.32;;;4.47;;
34405;SDS011;20658;45.630;8.886;2022-07-19T06:38:44;15.20;;;4.47;;
34405;SDS011;20658;45.630;8.886;2022-07-19T06:41:18;10.90;;;4.28;;
34405;SDS011;20658;45.630;8.886;2022-07-19T06:43:52;15.20;;;4.25;;
34405;SDS011;20658;45.630;8.886;2022-07-19T06:46:27;15.95;;;4.53;;
34405;SDS011;20658;45.630;8.886;2022-07-19T06:49:01;10.95;;;4.38;;
34405;SDS011;20658;45.630;8.886;2022-07-19T06:51:34;13.75;;;4.97;;
34405;SDS011;20658;45.630;8.886;2022-07-19T06:54:07;14.70;;;4.70;;
34405;SDS011;20658;45.630;8.886;2022-07-19T06:56:41;9.80;;;3.60;;
34405;SDS011;20658;45.630;8.886;2022-07-19T06:59:14;10.38;;;3.42;;
34405;SDS011;20658;45.630;8.886;2022-07-19T07:01:49;8.50;;;3.60;;
34405;SDS011;20658;45.630;8.886;2022-07-19T07:04:24;8.85;;;3.00;;
34405;SDS011;20658;45.630;8.886;2022-07-19T07:06:57;6.63;;;3.65;;
34405;SDS011;20658;45.630;8.886;2022-07-19T07:09:30;10.70;;;3.70;;
34405;SDS011;20658;45.630;8.886;2022-07-19T07:12:04;10.65;;;3.58;;
34405;SDS011;20658;45.630;8.886;2022-07-19T07:14:39;4.72;;;2.83;;
34405;SDS011;20658;45.630;8.886;2022-07-19T07:17:13;8.00;;;3.50;;
34405;SDS011;20658;45.630;8.886;2022-07-19T07:19:47;11.73;;;3.38;;
34405;SDS011;20658;45.630;8.886;2022-07-19T07:22:21;15.70;;;3.35;;
34405;SDS011;20658;45.630;8.886;2022-07-19T07:24:54;7.05;;;2.55;;
34405;SDS011;20658;45.630;8.886;2022-07-19T07:27:27;8.52;;;2.90;;
34405;SDS011;20658;45.630;8.886;2022-07-19T07:30:01;8.50;;;3.20;;
34405;SDS011;20658;45.630;8.886;2022-07-19T07:32:37;12.45;;;3.30;;
34405;SDS011;20658;45.630;8.886;2022-07-19T07:35:10;10.10;;;3.50;;
34405;SDS011;20658;45.630;8.886;2022-07-19T07:37:44;16.67;;;3.50;;
34405;SDS011;20658;45.630;8.886;2022-07-19T07:40:18;8.63;;;3.10;;
34405;SDS011;20658;45.630;8.886;2022-07-19T07:42:51;10.18;;;3.85;;
34405;SDS011;20658;45.630;8.886;2022-07-19T07:45:25;33.67;;;5.15;;
34405;SDS011;20658;45.630;8.886;2022-07-19T07:48:00;12.32;;;3.25;;
34405;SDS011;20658;45.630;8.886;2022-07-19T07:50:34;9.07;;;3.40;;
34405;SDS011;20658;45.630;8.886;2022-07-19T07:53:08;7.10;;;3.55;;
34405;SDS011;20658;45.630;8.886;2022-07-19T07:55:42;8.82;;;3.47;;
34405;SDS011;20658;45.630;8.886;2022-07-19T07:58:15;8.88;;;3.15;;
34405;SDS011;20658;45.630;8.886;2022-07-19T08:00:44;8.50;;;3.20;;
34405;SDS011;20658;45.630;8.886;2022-07-19T08:03:19;8.30;;;3.58;;
34405;SDS011;20658;45.630;8.886;2022-07-19T08:05:52;9.45;;;3.80;;
34405;SDS011;20658;45.630;8.886;2022-07-19T08:08:26;7.68;;;3.42;;
34405;SDS011;20658;45.630;8.886;2022-07-19T08:11:00;16.45;;;3.70;;
34405;SDS011;20658;45.630;8.886;2022-07-19T08:13:33;6.90;;;3.13;;
34405;SDS011;20658;45.630;8.886;2022-07-19T08:16:07;11.02;;;3.90;;
34405;SDS011;20658;45.630;8.886;2022-07-19T08:18:42;11.88;;;4.15;;
34405;SDS011;20658;45.630;8.886;2022-07-19T08:21:15;7.57;;;3.60;;
34405;SDS011;20658;45.630;8.886;2022-07-19T08:23:48;7.70;;;3.25;;
34405;SDS011;20658;45.630;8.886;2022-07-19T08:26:22;8.95;;;3.65;;
34405;SDS011;20658;45.630;8.886;2022-07-19T08:28:56;9.27;;;3.22;;
34405;SDS011;20658;45.630;8.886;2022-07-19T08:31:30;10.27;;;3.42;;
34405;SDS011;20658;45.630;8.886;2022-07-19T08:34:04;10.82;;;4.10;;
34405;SDS011;20658;45.630;8.886;2022-07-19T08:36:38;8.98;;;3.65;;
34405;SDS011;20658;45.630;8.886;2022-07-19T08:39:11;7.90;;;3.80;;
34405;SDS011;20658;45.630;8.886;2022-07-19T08:41:45;12.40;;;4.22;;
34405;SDS011;20658;45.630;8.886;2022-07-19T08:44:18;8.20;;;3.83;;
34405;SDS011;20658;45.630;8.886;2022-07-19T08:46:52;10.93;;;4.00;;
34405;SDS011;20658;45.630;8.886;2022-07-19T08:49:28;13.05;;;3.40;;
34405;SDS011;20658;45.630;8.886;2022-07-19T08:52:01;8.75;;;3.22;;
34405;SDS011;20658;45.630;8.886;2022-07-19T08:54:35;10.23;;;3.15;;
34405;SDS011;20658;45.630;8.886;2022-07-19T08:57:09;6.50;;;3.63;;
34405;SDS011;20658;45.630;8.886;2022-07-19T09:00:00;9.45;;;3.17;;
34405;SDS011;20658;45.630;8.886;2022-07-19T09:02:34;8.32;;;3.08;;
34405;SDS011;20658;45.630;8.886;2022-07-19T09:05:09;9.88;;;3.60;;
34405;SDS011;20658;45.630;8.886;2022-07-19T09:07:43;17.17;;;3.67;;
34405;SDS011;20658;45.630;8.886;2022-07-19T09:10:41;11.32;;;3.90;;
34405;SDS011;20658;45.630;8.886;2022-07-19T09:13:37;9.38;;;3.83;;
34405;SDS011;20658;45.630;8.886;2022-07-19T09:16:11;11.38;;;3.80;;
34405;SDS011;20658;45.630;8.886;2022-07-19T09:18:44;7.15;;;3.13;;
34405;SDS011;20658;45.630;8.886;2022-07-19T09:21:19;10.25;;;4.13;;
34405;SDS011;20658;45.630;8.886;2022-07-19T09:23:56;12.38;;;4.57;;
34405;SDS011;20658;45.630;8.886;2022-07-19T09:26:30;15.90;;;3.92;;
34405;SDS011;20658;45.630;8.886;2022-07-19T09:29:15;13.45;;;4.00;;
34405;SDS011;20658;45.630;8.886;2022-07-19T09:32:03;11.23;;;3.70;;
34405;SDS011;20658;45.630;8.886;2022-07-19T09:34:39;12.27;;;3.50;;
34405;SDS011;20658;45.630;8.886;2022-07-19T09:37:16;10.50;;;3.78;;
34405;SDS011;20658;45.630;8.886;2022-07-19T09:39:54;8.07;;;3.70;;
34405;SDS011;20658;45.630;8.886;2022-07-19T09:42:33;11.13;;;4.32;;
34405;SDS011;20658;45.630;8.886;2022-07-19T09:45:09;11.63;;;4.30;;
34405;SDS011;20658;45.630;8.886;2022-07-19T09:47:45;9.70;;;3.45;;
34405;SDS011;20658;45.630;8.886;2022-07-19T09:50:21;7.72;;;4.18;;
34405;SDS011;20658;45.630;8.886;2022-07-19T09:52:56;13.35;;;4.35;;
34405;SDS011;20658;45.630;8.886;2022-07-19T09:55:33;15.40;;;3.63;;
34405;SDS011;20658;45.630;8.886;2022-07-19T09:58:07;10.88;;;4.20;;
34405;SDS011;20658;45.630;8.886;2022-07-19T10:00:42;11.75;;;3.78;;
34405;SDS011;20658;45.630;8.886;2022-07-19T10:03:17;8.60;;;3.78;;
34405;SDS011;20658;45.630;8.886;2022-07-19T10:05:51;14.40;;;4.35;;
34405;SDS011;20658;45.630;8.886;2022-07-19T10:08:25;13.73;;;4.75;;
34405;SDS011;20658;45.630;8.886;2022-07-19T10:10:59;24.10;;;4.97;;
34405;SDS011;20658;45.630;8.886;2022-07-19T10:13:33;12.27;;;4.65;;
34405;SDS011;20658;45.630;8.886;2022-07-19T10:16:07;12.05;;;4.28;;
34405;SDS011;20658;45.630;8.886;2022-07-19T10:18:51;10.38;;;4.20;;
34405;SDS011;20658;45.630;8.886;2022-07-19T10:21:35;11.40;;;4.50;;
34405;SDS011;20658;45.630;8.886;2022-07-19T10:24:11;17.65;;;5.20;;
34405;SDS011;20658;45.630;8.886;2022-07-19T10:26:45;14.20;;;4.88;;
34405;SDS011;20658;45.630;8.886;2022-07-19T10:29:18;11.90;;;4.53;;
34405;SDS011;20658;45.630;8.886;2022-07-19T10:32:01;10.27;;;4.68;;
34405;SDS011;20658;45.630;8.886;2022-07-19T10:34:36;14.93;;;4.78;;
34405;SDS011;20658;45.630;8.886;2022-07-19T10:37:11;11.75;;;4.55;;
34405;SDS011;20658;45.630;8.886;2022-07-19T10:39:46;11.85;;;4.78;;
34405;SDS011;20658;45.630;8.886;2022-07-19T10:42:30;9.07;;;4.50;;
34405;SDS011;20658;45.630;8.886;2022-07-19T10:45:15;8.32;;;4.15;;
34405;SDS011;20658;45.630;8.886;2022-07-19T10:47:59;11.27;;;4.22;;
34405;SDS011;20658;45.630;8.886;2022-07-19T10:50:55;10.32;;;4.78;;
34405;SDS011;20658;45.630;8.886;2022-07-19T10:56:39;10.30;;;4.50;;
34405;SDS011;20658;45.630;8.886;2022-07-19T10:59:15;14.55;;;4.53;;
34405;SDS011;20658;45.630;8.886;2022-07-19T11:02:07;7.82;;;4.15;;
34405;SDS011;20658;45.630;8.886;2022-07-19T11:04:56;10.10;;;4.45;;
34405;SDS011;20658;45.630;8.886;2022-07-19T11:07:29;17.17;;;4.80;;
34405;SDS011;20658;45.630;8.886;2022-07-19T11:10:03;12.23;;;4.35;;
34405;SDS011;20658;45.630;8.886;2022-07-19T11:12:38;9.32;;;4.38;;
34405;SDS011;20658;45.630;8.886;2022-07-19T11:15:15;12.18;;;4.10;;
34405;SDS011;20658;45.630;8.886;2022-07-19T11:17:52;7.25;;;4.13;;
34405;SDS011;20658;45.630;8.886;2022-07-19T11:20:29;8.55;;;4.78;;
34405;SDS011;20658;45.630;8.886;2022-07-19T11:23:04;13.70;;;4.80;;
34405;SDS011;20658;45.630;8.886;2022-07-19T11:25:38;11.23;;;4.57;;
34405;SDS011;20658;45.630;8.886;2022-07-19T11:28:20;11.90;;;4.70;;
34405;SDS011;20658;45.630;8.886;2022-07-19T11:30:55;9.40;;;4.18;;
34405;SDS011;20658;45.630;8.886;2022-07-19T11:33:29;7.57;;;3.95;;
34405;SDS011;20658;45.630;8.886;2022-07-19T11:36:03;10.43;;;4.65;;
34405;SDS011;20658;45.630;8.886;2022-07-19T11:38:37;11.82;;;4.30;;
34405;SDS011;20658;45.630;8.886;2022-07-19T11:41:14;16.00;;;5.30;;
34405;SDS011;20658;45.630;8.886;2022-07-19T11:43:54;17.02;;;5.47;;
34405;SDS011;20658;45.630;8.886;2022-07-19T11:49:07;12.43;;;4.80;;
34405;SDS011;20658;45.630;8.886;2022-07-19T11:51:42;10.50;;;4.30;;
34405;SDS011;20658;45.630;8.886;2022-07-19T11:54:15;10.13;;;4.47;;
34405;SDS011;20658;45.630;8.886;2022-07-19T11:56:48;11.32;;;4.43;;
34405;SDS011;20658;45.630;8.886;2022-07-19T11:59:18;13.13;;;4.43;;
34405;SDS011;20658;45.630;8.886;2022-07-19T12:01:54;13.90;;;4.43;;
34405;SDS011;20658;45.630;8.886;2022-07-19T12:04:35;11.02;;;4.45;;
34405;SDS011;20658;45.630;8.886;2022-07-19T12:09:43;13.68;;;9.50;;
34405;SDS011;20658;45.630;8.886;2022-07-19T12:12:17;13.32;;;5.13;;
34405;SDS011;20658;45.630;8.886;2022-07-19T12:14:52;10.90;;;5.03;;
34405;SDS011;20658;45.630;8.886;2022-07-19T12:17:39;11.32;;;5.20;;
34405;SDS011;20658;45.630;8.886;2022-07-19T12:20:27;10.70;;;4.75;;
34405;SDS011;20658;45.630;8.886;2022-07-19T12:23:10;10.38;;;5.07;;
34405;SDS011;20658;45.630;8.886;2022-07-19T12:25:45;13.13;;;4.75;;
34405;SDS011;20658;45.630;8.886;2022-07-19T12:28:25;9.05;;;3.92;;
34405;SDS011;20658;45.630;8.886;2022-07-19T12:31:03;13.93;;;4.22;;
34405;SDS011;20658;45.630;8.886;2022-07-19T12:33:38;8.10;;;4.53;;
34405;SDS011;20658;45.630;8.886;2022-07-19T12:39:17;12.27;;;4.20;;
34405;SDS011;20658;45.630;8.886;2022-07-19T12:42:00;15.80;;;4.93;;
34405;SDS011;20658;45.630;8.886;2022-07-19T12:44:37;14.35;;;4.63;;
34405;SDS011;20658;45.630;8.886;2022-07-19T12:47:12;7.20;;;3.90;;
34405;SDS011;20658;45.630;8.886;2022-07-19T12:49:48;12.07;;;4.70;;
34405;SDS011;20658;45.630;8.886;2022-07-19T12:52:21;12.05;;;4.28;;
34405;SDS011;20658;45.630;8.886;2022-07-19T12:54:55;8.50;;;4.03;;
34405;SDS011;20658;45.630;8.886;2022-07-19T12:57:28;9.07;;;4.13;;
34405;SDS011;20658;45.630;8.886;2022-07-19T13:00:05;12.57;;;4.10;;
34405;SDS011;20658;45.630;8.886;2022-07-19T13:02:41;10.90;;;3.55;;
34405;SDS011;20658;45.630;8.886;2022-07-19T13:05:14;8.90;;;4.53;;
34405;SDS011;20658;45.630;8.886;2022-07-19T13:07:49;7.57;;;4.03;;
34405;SDS011;20658;45.630;8.886;2022-07-19T13:10:23;11.68;;;4.57;;
34405;SDS011;20658;45.630;8.886;2022-07-19T13:12:57;12.20;;;4.03;;
34405;SDS011;20658;45.630;8.886;2022-07-19T13:15:31;11.65;;;3.75;;
34405;SDS011;20658;45.630;8.886;2022-07-19T13:18:06;12.10;;;4.72;;
34405;SDS011;20658;45.630;8.886;2022-07-19T13:20:39;12.10;;;3.95;;
34405;SDS011;20658;45.630;8.886;2022-07-19T13:23:12;14.10;;;4.07;;
34405;SDS011;20658;45.630;8.886;2022-07-19T13:25:46;13.75;;;4.45;;
34405;SDS011;20658;45.630;8.886;2022-07-19T13:28:19;8.02;;;4.43;;
34405;SDS011;20658;45.630;8.886;2022-07-19T13:30:53;9.38;;;4.35;;
34405;SDS011;20658;45.630;8.886;2022-07-19T13:33:27;11.88;;;4.85;;
34405;SDS011;20658;45.630;8.886;2022-07-19T13:36:01;8.38;;;4.13;;
34405;SDS011;20658;45.630;8.886;2022-07-19T13:38:35;10.48;;;4.03;;
34405;SDS011;20658;45.630;8.886;2022-07-19T13:41:10;9.63;;;4.47;;
34405;SDS011;20658;45.630;8.886;2022-07-19T13:43:43;8.40;;;4.30;;
34405;SDS011;20658;45.630;8.886;2022-07-19T13:46:17;11.15;;;4.95;;
34405;SDS011;20658;45.630;8.886;2022-07-19T13:48:52;9.25;;;4.28;;
34405;SDS011;20658;45.630;8.886;2022-07-19T13:51:25;13.23;;;4.88;;
34405;SDS011;20658;45.630;8.886;2022-07-19T13:53:59;9.77;;;4.22;;
34405;SDS011;20658;45.630;8.886;2022-07-19T13:56:33;11.45;;;4.35;;
34405;SDS011;20658;45.630;8.886;2022-07-19T13:59:06;8.48;;;4.32;;
34405;SDS011;20658;45.630;8.886;2022-07-19T14:01:40;10.88;;;4.63;;
34405;SDS011;20658;45.630;8.886;2022-07-19T14:04:15;8.40;;;4.35;;
34405;SDS011;20658;45.630;8.886;2022-07-19T14:06:48;11.27;;;4.22;;
34405;SDS011;20658;45.630;8.886;2022-07-19T14:09:22;7.68;;;3.90;;
34405;SDS011;20658;45.630;8.886;2022-07-19T14:11:55;9.25;;;3.90;;
34405;SDS011;20658;45.630;8.886;2022-07-19T14:14:28;10.27;;;4.57;;
34405;SDS011;20658;45.630;8.886;2022-07-19T14:17:02;11.38;;;4.30;;
34405;SDS011;20658;45.630;8.886;2022-07-19T14:19:37;12.75;;;3.60;;
34405;SDS011;20658;45.630;8.886;2022-07-19T14:22:10;13.02;;;4.22;;
34405;SDS011;20658;45.630;8.886;2022-07-19T14:24:44;11.98;;;4.10;;
34405;SDS011;20658;45.630;8.886;2022-07-19T14:27:17;8.88;;;3.55;;
34405;SDS011;20658;45.630;8.886;2022-07-19T14:29:51;8.25;;;4.05;;
34405;SDS011;20658;45.630;8.886;2022-07-19T14:32:24;15.60;;;4.25;;
34405;SDS011;20658;45.630;8.886;2022-07-19T14:34:59;13.15;;;4.03;;
34405;SDS011;20658;45.630;8.886;2022-07-19T14:37:32;10.98;;;3.97;;
34405;SDS011;20658;45.630;8.886;2022-07-19T14:40:06;11.90;;;4.13;;
34405;SDS011;20658;45.630;8.886;2022-07-19T14:42:41;9.15;;;3.72;;
34405;SDS011;20658;45.630;8.886;2022-07-19T14:45:14;13.65;;;3.97;;
34405;SDS011;20658;45.630;8.886;2022-07-19T14:47:48;10.35;;;4.30;;
34405;SDS011;20658;45.630;8.886;2022-07-19T14:50:23;11.85;;;4.20;;
34405;SDS011;20658;45.630;8.886;2022-07-19T14:52:56;9.75;;;4.25;;
34405;SDS011;20658;45.630;8.886;2022-07-19T14:55:29;9.68;;;4.38;;
34405;SDS011;20658;45.630;8.886;2022-07-19T14:58:03;6.95;;;3.67;;
34405;SDS011;20658;45.630;8.886;2022-07-19T15:00:36;9.10;;;3.30;;
34405;SDS011;20658;45.630;8.886;2022-07-19T15:03:10;17.80;;;4.18;;
34405;SDS011;20658;45.630;8.886;2022-07-19T15:05:45;6.80;;;3.70;;
34405;SDS011;20658;45.630;8.886;2022-07-19T15:08:18;12.85;;;4.28;;
34405;SDS011;20658;45.630;8.886;2022-07-19T15:10:52;6.07;;;3.50;;
34405;SDS011;20658;45.630;8.886;2022-07-19T15:13:25;8.40;;;4.10;;
34405;SDS011;20658;45.630;8.886;2022-07-19T15:15:59;12.20;;;3.85;;
34405;SDS011;20658;45.630;8.886;2022-07-19T15:18:32;8.95;;;4.45;;
34405;SDS011;20658;45.630;8.886;2022-07-19T15:21:07;11.35;;;4.25;;
34405;SDS011;20658;45.630;8.886;2022-07-19T15:23:41;12.90;;;4.75;;
34405;SDS011;20658;45.630;8.886;2022-07-19T15:26:14;8.38;;;3.70;;
34405;SDS011;20658;45.630;8.886;2022-07-19T15:28:48;12.02;;;4.72;;
34405;SDS011;20658;45.630;8.886;2022-07-19T15:31:21;6.45;;;3.95;;
34405;SDS011;20658;45.630;8.886;2022-07-19T15:33:55;9.35;;;4.50;;